createdAt,value
2019-05-06T00:00:19.104Z,4.58
2019-05-06T00:03:02.554Z,6.97
2019-05-06T00:05:38.336Z,3.80
2019-05-06T00:08:09.575Z,4.50
2019-05-06T00:10:39.800Z,7.45
2019-05-06T00:13:09.873Z,6.25
2019-05-06T00:15:41.020Z,3.77
2019-05-06T00:18:11.097Z,3.45
2019-05-06T00:20:41.183Z,4.50
2019-05-06T00:23:25.373Z,4.28
2019-05-06T00:26:04.134Z,3.17
2019-05-06T00:28:39.405Z,5.25
2019-05-06T00:31:16.859Z,5.30
2019-05-06T00:33:47.021Z,4.47
2019-05-06T00:36:17.209Z,5.28
2019-05-06T00:38:49.915Z,4.17
2019-05-06T00:41:24.852Z,5.00
2019-05-06T00:43:54.904Z,3.60
2019-05-06T00:46:25.005Z,3.90
2019-05-06T00:48:56.000Z,3.90
2019-05-06T00:51:26.148Z,3.80
2019-05-06T00:53:58.812Z,5.75
2019-05-06T00:56:29.844Z,4.00
2019-05-06T00:59:00.902Z,3.35
2019-05-06T01:01:34.236Z,3.15
2019-05-06T01:04:14.046Z,3.33
2019-05-06T01:06:54.285Z,3.40
2019-05-06T01:09:30.552Z,3.52
2019-05-06T01:12:03.640Z,5.40
2019-05-06T01:14:39.625Z,3.98
2019-05-06T01:17:09.801Z,5.22
2019-05-06T01:19:46.447Z,4.30
2019-05-06T01:22:34.493Z,6.53
2019-05-06T01:25:14.464Z,6.33
2019-05-06T01:27:46.532Z,4.42
2019-05-06T01:30:24.329Z,3.90
2019-05-06T01:32:57.540Z,5.33
2019-05-06T01:35:29.584Z,4.20
2019-05-06T01:38:21.296Z,3.80
2019-05-06T01:41:10.170Z,4.80
2019-05-06T01:43:43.809Z,4.05
2019-05-06T01:46:14.067Z,5.65
2019-05-06T01:48:48.948Z,4.12
2019-05-06T01:51:44.076Z,4.45
2019-05-06T01:54:20.952Z,5.20
2019-05-06T01:56:56.940Z,8.28
2019-05-06T01:59:27.298Z,4.58
2019-05-06T02:02:00.974Z,3.95
2019-05-06T02:04:30.155Z,4.75
2019-05-06T02:07:03.798Z,4.22
2019-05-06T02:09:36.062Z,3.90
2019-05-06T02:12:13.829Z,4.62
2019-05-06T02:14:43.889Z,4.80
2019-05-06T02:17:14.520Z,5.12
2019-05-06T02:19:44.752Z,5.58
2019-05-06T02:22:36.496Z,3.58
2019-05-06T02:25:09.536Z,7.35
2019-05-06T02:27:44.569Z,4.83
2019-05-06T02:30:18.049Z,4.45
2019-05-06T02:32:59.012Z,6.33
2019-05-06T02:35:36.592Z,5.58
2019-05-06T02:38:11.382Z,5.05
2019-05-06T02:40:46.577Z,6.10
2019-05-06T02:43:25.942Z,5.10
2019-05-06T02:45:57.998Z,4.78
2019-05-06T02:48:38.202Z,5.20
2019-05-06T02:51:13.360Z,5.00
2019-05-06T02:53:44.636Z,7.58
2019-05-06T02:56:23.985Z,6.45
2019-05-06T02:59:04.111Z,6.67
2019-05-06T03:01:35.415Z,7.50
2019-05-06T03:04:06.409Z,5.40
2019-05-06T03:06:46.390Z,5.78
2019-05-06T03:09:16.474Z,5.60
2019-05-06T03:11:56.229Z,6.20
2019-05-06T03:14:34.604Z,8.85
2019-05-06T03:17:07.741Z,8.80
2019-05-06T03:19:39.464Z,6.58
2019-05-06T03:22:17.044Z,5.37
2019-05-06T03:24:50.681Z,5.42
2019-05-06T03:27:32.881Z,4.72
2019-05-06T03:30:08.875Z,5.95
2019-05-06T03:33:14.181Z,5.65
2019-05-06T03:35:31.365Z,6.17
2019-05-06T03:37:53.431Z,6.97
2019-05-06T03:40:27.762Z,5.53
2019-05-06T03:42:58.816Z,6.40
2019-05-06T03:45:42.868Z,8.13
2019-05-06T03:48:23.792Z,5.30
2019-05-06T03:50:58.732Z,6.83
2019-05-06T03:53:33.374Z,6.58
2019-05-06T03:56:09.873Z,7.42
2019-05-06T03:58:43.489Z,8.98
2019-05-06T04:01:15.233Z,10.25
2019-05-06T04:03:52.322Z,10.43
2019-05-06T04:06:25.798Z,6.50
2019-05-06T04:08:56.747Z,6.55
2019-05-06T04:11:28.059Z,12.23
2019-05-06T04:14:02.769Z,9.30
2019-05-06T04:16:44.463Z,11.78
2019-05-06T04:19:17.810Z,7.70
2019-05-06T04:21:49.649Z,12.10
2019-05-06T04:24:38.025Z,7.10
2019-05-06T04:27:33.910Z,7.97
2019-05-06T04:30:07.757Z,13.28
2019-05-06T04:32:43.169Z,8.85
2019-05-06T04:35:23.037Z,11.03
2019-05-06T04:37:54.084Z,7.97
2019-05-06T04:40:24.286Z,8.80
2019-05-06T04:42:55.318Z,9.95
2019-05-06T04:45:28.481Z,8.90
2019-05-06T04:47:58.643Z,9.30
2019-05-06T04:50:28.793Z,14.60
2019-05-06T04:53:05.682Z,10.45
2019-05-06T04:55:37.524Z,9.08
2019-05-06T04:58:13.506Z,9.88
2019-05-06T05:00:44.949Z,9.73
2019-05-06T05:03:16.100Z,8.85
2019-05-06T05:05:54.041Z,8.98
2019-05-06T05:08:38.519Z,12.50
2019-05-06T05:11:29.519Z,8.45
2019-05-06T05:14:02.868Z,6.90
2019-05-06T05:16:54.032Z,8.38
2019-05-06T05:19:33.760Z,9.08
2019-05-06T05:22:07.904Z,8.35
2019-05-06T05:24:45.884Z,9.78
2019-05-06T05:27:17.206Z,8.05
2019-05-06T05:29:47.358Z,10.05
2019-05-06T05:32:19.505Z,8.05
2019-05-06T05:34:58.672Z,7.40
2019-05-06T05:37:28.749Z,8.98
2019-05-06T05:39:59.728Z,9.38
2019-05-06T05:42:32.830Z,12.37
2019-05-06T05:45:08.506Z,18.35
2019-05-06T05:47:38.756Z,8.60
2019-05-06T05:50:13.157Z,9.88
2019-05-06T05:52:43.584Z,7.70
2019-05-06T05:55:22.065Z,9.63
2019-05-06T05:57:53.132Z,8.15
2019-05-06T06:00:35.761Z,9.08
2019-05-06T06:03:07.250Z,9.08
2019-05-06T06:05:48.786Z,6.62
2019-05-06T06:08:27.125Z,6.67
2019-05-06T06:11:13.052Z,5.83
2019-05-06T06:13:56.125Z,6.17
2019-05-06T06:16:54.941Z,8.38
2019-05-06T06:19:36.199Z,6.15
2019-05-06T06:22:08.133Z,5.50
2019-05-06T06:24:38.276Z,5.42
2019-05-06T06:27:09.249Z,7.45
2019-05-06T06:29:54.497Z,6.80
2019-05-06T06:32:28.425Z,7.50
2019-05-06T06:35:14.194Z,6.33
2019-05-06T06:37:44.013Z,5.53
2019-05-06T06:40:17.893Z,5.00
2019-05-06T06:42:55.651Z,4.90
2019-05-06T06:45:26.717Z,4.90
2019-05-06T06:48:06.707Z,5.55
2019-05-06T06:50:36.790Z,4.35
2019-05-06T06:53:06.871Z,4.15
2019-05-06T06:55:42.575Z,8.10
2019-05-06T06:58:20.005Z,5.97
2019-05-06T07:01:13.245Z,9.18
2019-05-06T07:03:52.793Z,5.78
2019-05-06T07:06:27.646Z,8.53
2019-05-06T07:08:57.740Z,4.83
2019-05-06T07:11:28.801Z,3.67
2019-05-06T07:13:59.693Z,6.10
2019-05-06T07:16:32.772Z,4.10
2019-05-06T07:19:03.788Z,4.30
2019-05-06T07:21:39.688Z,4.12
2019-05-06T07:24:10.125Z,5.65
2019-05-06T07:26:46.514Z,8.48
2019-05-06T07:29:26.776Z,3.72
2019-05-06T07:31:59.302Z,8.63
2019-05-06T07:34:29.381Z,5.00
2019-05-06T07:36:59.525Z,3.60
2019-05-06T07:39:43.073Z,4.17
2019-05-06T07:42:26.317Z,4.25
2019-05-06T07:44:58.053Z,4.70
2019-05-06T07:47:35.633Z,5.62
2019-05-06T07:50:07.733Z,5.35
2019-05-06T07:52:38.793Z,5.85
2019-05-06T07:55:11.996Z,8.18
2019-05-06T07:57:42.418Z,8.53
2019-05-06T08:00:25.540Z,4.65
2019-05-06T08:03:09.500Z,7.90
2019-05-06T08:05:54.822Z,6.22
2019-05-06T08:08:26.257Z,6.22
2019-05-06T08:10:56.337Z,6.80
2019-05-06T08:13:26.426Z,9.75
2019-05-06T08:15:57.581Z,5.42
2019-05-06T08:18:28.637Z,6.83
2019-05-06T08:21:02.567Z,6.72
2019-05-06T08:23:43.042Z,6.40
2019-05-06T08:26:17.271Z,5.33
2019-05-06T08:28:44.981Z,4.47
2019-05-06T08:31:27.405Z,7.47
2019-05-06T08:33:58.429Z,5.20
2019-05-06T08:36:42.636Z,7.27
2019-05-06T08:39:14.076Z,5.47
2019-05-06T08:41:45.056Z,7.53
2019-05-06T08:44:17.122Z,6.90
2019-05-06T08:46:53.330Z,6.30
2019-05-06T08:49:24.441Z,6.30
2019-05-06T08:52:02.238Z,7.17
2019-05-06T08:54:34.370Z,10.77
2019-05-06T08:57:06.529Z,13.70
2019-05-06T08:59:38.521Z,6.83
2019-05-06T09:02:32.331Z,7.40
2019-05-06T09:05:12.244Z,7.20
2019-05-06T09:07:45.973Z,7.80
2019-05-06T09:10:16.341Z,8.90
2019-05-06T09:12:52.509Z,5.27
2019-05-06T09:15:23.590Z,7.73
2019-05-06T09:18:12.435Z,6.30
2019-05-06T09:20:54.426Z,6.47
2019-05-06T09:23:27.772Z,6.50
2019-05-06T09:25:57.872Z,8.08
2019-05-06T09:28:34.665Z,7.60
2019-05-06T09:31:12.694Z,8.85
2019-05-06T09:33:55.709Z,8.30
2019-05-06T09:36:39.816Z,8.13
2019-05-06T09:39:02.770Z,8.05
2019-05-06T09:41:32.837Z,7.22
2019-05-06T09:44:03.200Z,9.10
2019-05-06T09:46:33.428Z,12.95
2019-05-06T09:49:06.098Z,9.70
2019-05-06T09:51:37.137Z,7.58
2019-05-06T09:54:19.725Z,11.63
2019-05-06T09:57:04.578Z,7.83
2019-05-06T09:59:34.720Z,5.92
2019-05-06T10:02:05.065Z,8.53
2019-05-06T10:04:37.160Z,8.38
2019-05-06T10:07:13.540Z,5.80
2019-05-06T10:09:54.781Z,9.93
2019-05-06T10:12:32.747Z,7.65
2019-05-06T10:15:03.148Z,7.55
2019-05-06T10:17:33.473Z,10.85
2019-05-06T10:20:12.989Z,8.28
2019-05-06T10:22:44.093Z,7.03
2019-05-06T10:25:16.221Z,9.03
2019-05-06T10:27:48.950Z,9.28
2019-05-06T10:30:22.454Z,5.85
2019-05-06T10:32:57.765Z,7.03
2019-05-06T10:35:29.721Z,10.38
2019-05-06T10:38:27.389Z,8.05
2019-05-06T10:41:06.677Z,7.47
2019-05-06T10:43:58.805Z,7.60
2019-05-06T10:46:28.870Z,8.20
2019-05-06T10:49:02.431Z,7.73
2019-05-06T10:51:42.756Z,7.50
2019-05-06T10:54:19.945Z,11.07
2019-05-06T10:56:57.323Z,6.53
2019-05-06T10:59:27.675Z,6.40
2019-05-06T11:01:59.409Z,7.50
2019-05-06T11:04:29.513Z,6.50
2019-05-06T11:07:00.835Z,5.10
2019-05-06T11:09:34.797Z,4.93
2019-05-06T11:12:04.885Z,11.40
2019-05-06T11:14:35.938Z,5.33
2019-05-06T11:17:19.149Z,5.90
2019-05-06T11:19:53.318Z,7.33
2019-05-06T11:22:24.873Z,6.70
2019-05-06T11:24:56.913Z,4.43
2019-05-06T11:27:32.095Z,7.27
2019-05-06T11:30:02.335Z,4.70
2019-05-06T11:32:44.454Z,4.00
2019-05-06T11:35:28.435Z,3.47
2019-05-06T11:38:02.823Z,4.90
2019-05-06T11:40:33.306Z,5.37
2019-05-06T11:43:05.333Z,3.43
2019-05-06T11:45:35.414Z,4.00
2019-05-06T11:48:05.574Z,5.27
2019-05-06T11:50:35.673Z,5.47
2019-05-06T11:53:08.910Z,4.33
2019-05-06T11:55:39.994Z,7.67
2019-05-06T11:58:27.519Z,3.80
2019-05-06T12:01:13.460Z,4.73
2019-05-06T12:03:43.634Z,4.77
2019-05-06T12:06:13.717Z,5.47
2019-05-06T12:08:49.681Z,6.37
2019-05-06T12:11:19.914Z,5.23
2019-05-06T12:13:53.189Z,7.70
2019-05-06T12:16:26.057Z,4.60
2019-05-06T12:18:54.731Z,5.50
2019-05-06T12:21:27.857Z,4.80
2019-05-06T12:23:58.930Z,5.23
2019-05-06T12:26:32.038Z,5.37
2019-05-06T12:29:02.330Z,7.23
2019-05-06T12:31:32.989Z,6.83
2019-05-06T12:34:11.338Z,5.70
2019-05-06T12:36:39.897Z,7.10
2019-05-06T12:39:18.653Z,7.90
2019-05-06T12:42:11.581Z,8.30
2019-05-06T12:44:43.357Z,6.27
2019-05-06T12:47:18.194Z,4.50
2019-05-06T12:49:57.350Z,6.35
2019-05-06T12:52:27.445Z,6.25
2019-05-06T12:55:14.788Z,11.38
2019-05-06T12:57:30.250Z,10.05
2019-05-06T13:00:03.122Z,5.25
2019-05-06T13:02:32.839Z,6.85
2019-05-06T13:05:06.330Z,9.75
2019-05-06T13:07:38.121Z,13.18
2019-05-06T13:10:08.681Z,5.75
2019-05-06T13:12:45.399Z,5.12
2019-05-06T13:15:15.506Z,5.80
2019-05-06T13:17:46.562Z,8.40
2019-05-06T13:20:35.262Z,9.05
2019-05-06T13:23:25.775Z,8.20
2019-05-06T13:25:57.811Z,5.40
2019-05-06T13:28:49.293Z,6.03
2019-05-06T13:31:21.835Z,9.47
2019-05-06T13:33:55.463Z,8.70
2019-05-06T13:36:28.152Z,9.87
2019-05-06T13:39:13.721Z,7.80
2019-05-06T13:41:47.981Z,8.20
2019-05-06T13:44:18.174Z,5.00
2019-05-06T13:46:49.890Z,6.43
2019-05-06T13:49:22.757Z,7.73
2019-05-06T13:51:54.725Z,7.07
2019-05-06T13:54:34.377Z,5.60
2019-05-06T13:57:07.710Z,6.37
2019-05-06T13:59:38.754Z,6.90
2019-05-06T14:02:16.619Z,8.80
2019-05-06T14:04:52.767Z,6.77
2019-05-06T14:07:24.661Z,6.93
2019-05-06T14:09:54.784Z,6.20
2019-05-06T14:12:24.869Z,7.80
2019-05-06T14:14:54.966Z,7.70
2019-05-06T14:17:25.058Z,7.47
2019-05-06T14:19:56.147Z,10.07
2019-05-06T14:22:28.142Z,6.30
2019-05-06T14:25:18.081Z,6.53
2019-05-06T14:28:03.143Z,9.23
2019-05-06T14:30:42.976Z,5.23
2019-05-06T14:33:17.475Z,8.77
2019-05-06T14:35:47.605Z,5.30
2019-05-06T14:38:24.596Z,10.03
2019-05-06T14:41:08.521Z,6.27
2019-05-06T14:43:42.682Z,5.53
2019-05-06T14:46:14.454Z,6.23
2019-05-06T14:48:44.485Z,4.20
2019-05-06T14:51:14.722Z,5.10
2019-05-06T14:53:44.867Z,6.50
2019-05-06T14:56:16.618Z,9.10
2019-05-06T14:59:04.217Z,7.23
2019-05-06T15:01:45.097Z,6.43
2019-05-06T15:04:17.097Z,6.70
2019-05-06T15:06:48.102Z,9.47
2019-05-06T15:09:18.264Z,9.70
2019-05-06T15:12:02.345Z,6.67
2019-05-06T15:14:36.445Z,7.00
2019-05-06T15:17:08.525Z,5.60
2019-05-06T15:19:44.849Z,8.07
2019-05-06T15:22:15.166Z,8.10
2019-05-06T15:24:57.367Z,5.43
2019-05-06T15:27:27.449Z,10.37
2019-05-06T15:30:22.846Z,7.10
2019-05-06T15:33:15.110Z,8.63
2019-05-06T15:35:58.449Z,6.50
2019-05-06T15:38:30.309Z,8.50
2019-05-06T15:41:00.404Z,7.40
2019-05-06T15:43:35.551Z,7.43
2019-05-06T15:46:15.217Z,4.43
2019-05-06T15:48:45.336Z,8.07
2019-05-06T15:51:22.327Z,7.37
2019-05-06T15:53:54.129Z,7.77
2019-05-06T15:56:33.237Z,8.43
2019-05-06T15:59:04.582Z,7.13
2019-05-06T16:01:43.159Z,6.47
2019-05-06T16:04:18.367Z,9.00
2019-05-06T16:06:48.489Z,7.30
2019-05-06T16:09:18.577Z,9.18
2019-05-06T16:11:57.961Z,7.00
2019-05-06T16:14:28.970Z,5.50
2019-05-06T16:16:59.061Z,8.83
2019-05-06T16:19:33.630Z,4.92
2019-05-06T16:22:04.839Z,5.08
2019-05-06T16:24:43.529Z,5.62
2019-05-06T16:27:16.712Z,6.17
2019-05-06T16:29:46.855Z,5.40
2019-05-06T16:32:18.848Z,6.80
2019-05-06T16:34:48.925Z,6.03
2019-05-06T16:37:19.017Z,7.45
2019-05-06T16:39:52.432Z,13.50
2019-05-06T16:42:24.786Z,5.97
2019-05-06T16:44:54.881Z,5.03
2019-05-06T16:47:40.202Z,5.25
2019-05-06T16:50:13.637Z,5.58
2019-05-06T16:52:45.407Z,8.30
2019-05-06T16:55:36.806Z,8.78
2019-05-06T16:58:10.227Z,4.50
2019-05-06T17:00:46.334Z,5.92
2019-05-06T17:03:25.045Z,7.03
2019-05-06T17:06:13.925Z,10.75
2019-05-06T17:08:52.840Z,7.10
2019-05-06T17:11:30.275Z,6.75
2019-05-06T17:14:00.513Z,5.97
2019-05-06T17:16:30.583Z,5.85
2019-05-06T17:19:00.653Z,5.05
2019-05-06T17:21:33.816Z,8.70
2019-05-06T17:24:04.237Z,12.33
2019-05-06T17:26:36.317Z,10.15
2019-05-06T17:29:23.797Z,13.78
2019-05-06T17:32:03.190Z,14.20
2019-05-06T17:34:42.545Z,11.15
2019-05-06T17:37:38.392Z,19.52
2019-05-06T17:40:14.102Z,11.65
2019-05-06T17:42:43.618Z,7.30
2019-05-06T17:45:18.807Z,11.15
2019-05-06T17:47:50.551Z,15.88
2019-05-06T17:50:32.650Z,14.53
2019-05-06T17:53:03.402Z,14.68
2019-05-06T17:55:45.034Z,24.12
2019-05-06T17:58:15.209Z,25.82
2019-05-06T18:00:52.239Z,16.37
2019-05-06T18:03:24.917Z,19.32
2019-05-06T18:05:55.110Z,13.93
2019-05-06T18:08:26.171Z,9.23
2019-05-06T18:10:59.421Z,9.90
2019-05-06T18:13:37.666Z,9.85
2019-05-06T18:16:08.694Z,10.13
2019-05-06T18:18:48.863Z,8.25
2019-05-06T18:21:18.974Z,12.95
2019-05-06T18:23:52.288Z,14.87
2019-05-06T18:26:23.107Z,12.50
2019-05-06T18:28:53.251Z,7.83
2019-05-06T18:31:23.581Z,10.05
2019-05-06T18:33:58.666Z,11.55
2019-05-06T18:36:35.874Z,13.55
2019-05-06T18:39:08.714Z,13.28
2019-05-06T18:41:42.071Z,14.20
2019-05-06T18:44:18.191Z,12.58
2019-05-06T18:47:02.854Z,24.90
2019-05-06T18:49:46.946Z,20.80
2019-05-06T18:52:23.346Z,11.57
2019-05-06T18:54:52.874Z,11.75
2019-05-06T18:57:22.772Z,6.35
2019-05-06T18:59:53.432Z,7.90
2019-05-06T19:02:28.118Z,23.87
2019-05-06T19:05:02.420Z,19.57
2019-05-06T19:07:33.387Z,13.68
2019-05-06T19:10:05.606Z,18.62
2019-05-06T19:12:41.319Z,19.40
2019-05-06T19:15:22.667Z,13.10
2019-05-06T19:18:02.270Z,12.15
2019-05-06T19:20:33.966Z,10.58
2019-05-06T19:23:03.616Z,10.03
2019-05-06T19:25:36.534Z,11.57
2019-05-06T19:28:06.022Z,14.45
2019-05-06T19:30:38.090Z,13.20
2019-05-06T19:33:08.459Z,13.50
2019-05-06T19:35:38.563Z,21.10
2019-05-06T19:38:08.738Z,14.78
2019-05-06T19:40:38.874Z,7.83
2019-05-06T19:43:13.686Z,10.05
2019-05-06T19:45:44.702Z,12.55
2019-05-06T19:48:26.819Z,13.05
2019-05-06T19:50:56.878Z,15.55
2019-05-06T19:53:32.135Z,8.68
2019-05-06T19:56:03.776Z,11.60
2019-05-06T19:58:52.810Z,7.45
2019-05-06T20:01:32.654Z,12.95
2019-05-06T20:04:02.639Z,12.73
2019-05-06T20:06:55.230Z,11.78
2019-05-06T20:09:38.570Z,12.37
2019-05-06T20:12:15.586Z,7.90
2019-05-06T20:14:45.654Z,11.65
2019-05-06T20:17:15.727Z,10.25
2019-05-06T20:19:46.777Z,13.35
2019-05-06T20:22:38.938Z,12.53
2019-05-06T20:25:09.504Z,9.85
2019-05-06T20:27:42.010Z,15.83
2019-05-06T20:30:11.922Z,12.43
2019-05-06T20:32:42.570Z,12.98
2019-05-06T20:35:13.891Z,11.28
2019-05-06T20:37:45.974Z,8.05
2019-05-06T20:40:17.536Z,13.48
2019-05-06T20:42:57.530Z,11.25
2019-05-06T20:45:28.783Z,9.90
2019-05-06T20:48:03.251Z,9.38
2019-05-06T20:50:35.590Z,11.95
2019-05-06T20:53:06.287Z,10.72
2019-05-06T20:55:36.695Z,17.40
2019-05-06T20:58:12.206Z,14.38
2019-05-06T21:00:43.519Z,15.00
2019-05-06T21:03:15.535Z,8.85
2019-05-06T21:05:51.388Z,8.10
2019-05-06T21:08:24.478Z,10.35
2019-05-06T21:10:54.570Z,11.25
2019-05-06T21:13:31.939Z,10.05
2019-05-06T21:16:13.035Z,10.32
2019-05-06T21:18:47.862Z,11.15
2019-05-06T21:21:36.794Z,10.55
2019-05-06T21:24:06.874Z,9.55
2019-05-06T21:26:37.909Z,12.07
2019-05-06T21:29:23.201Z,9.88
2019-05-06T21:31:54.302Z,8.75
2019-05-06T21:34:26.907Z,10.93
2019-05-06T21:36:58.383Z,14.85
2019-05-06T21:39:43.510Z,8.75
2019-05-06T21:42:15.698Z,12.45
2019-05-06T21:44:48.746Z,13.80
2019-05-06T21:47:32.814Z,13.78
2019-05-06T21:50:12.050Z,10.43
2019-05-06T21:52:43.259Z,8.00
2019-05-06T21:55:16.239Z,11.65
2019-05-06T21:57:53.078Z,11.57
2019-05-06T22:00:25.278Z,12.18
2019-05-06T22:02:55.334Z,11.60
2019-05-06T22:05:34.574Z,11.88
2019-05-06T22:08:09.810Z,16.35
2019-05-06T22:10:42.584Z,13.05
2019-05-06T22:13:26.260Z,11.93
2019-05-06T22:16:02.366Z,23.70
2019-05-06T22:18:55.326Z,12.28
2019-05-06T22:21:25.918Z,12.15
2019-05-06T22:24:04.182Z,8.70
2019-05-06T22:26:34.578Z,12.53
2019-05-06T22:29:19.391Z,10.50
2019-05-06T22:31:49.513Z,12.25
2019-05-06T22:34:42.471Z,10.82
2019-05-06T22:37:13.674Z,11.48
2019-05-06T22:40:07.462Z,10.20
2019-05-06T22:42:39.515Z,9.83
2019-05-06T22:45:12.508Z,12.20
2019-05-06T22:47:54.694Z,10.20
2019-05-06T22:50:32.990Z,15.80
2019-05-06T22:53:03.259Z,9.30
2019-05-06T22:55:39.598Z,10.30
2019-05-06T22:58:12.910Z,10.93
2019-05-06T23:00:44.610Z,12.28
2019-05-06T23:03:17.351Z,10.20
2019-05-06T23:05:54.202Z,11.70
2019-05-06T23:08:32.490Z,12.80
2019-05-06T23:11:02.424Z,12.43
2019-05-06T23:13:34.002Z,10.43
2019-05-06T23:16:15.066Z,12.55
2019-05-06T23:18:45.130Z,17.35
2019-05-06T23:21:15.207Z,12.03
2019-05-06T23:24:02.133Z,13.58
2019-05-06T23:26:32.366Z,11.18
2019-05-06T23:29:02.635Z,11.25
2019-05-06T23:31:33.349Z,13.58
2019-05-06T23:34:15.494Z,12.70
2019-05-06T23:37:02.871Z,14.45
2019-05-06T23:40:29.368Z,10.15
2019-05-06T23:43:58.886Z,11.15
2019-05-06T23:47:23.926Z,10.72
2019-05-06T23:50:51.851Z,11.30
2019-05-06T23:54:16.906Z,13.38
2019-05-06T23:56:55.286Z,13.75
2019-05-06T23:59:25.458Z,10.23
